Time;durP1;ratioP1;P1;durP2;ratioP2;P2;SDS_P1;SDS_P2;PMS_P1;PMS_P2;Temp;Humidity;BMP_temperature;BMP_pressure;BME280_temperature;BME280_humidity;BME280_pressure;Samples;Min_cycle;Max_cycle;Signal;HPM_P1;HPM_P2
2023/07/08 00:00:15;;;;;;;15.75;10.50;;;;;;;;;;5048789;28;20076;-66
2023/07/08 00:02:42;;;;;;;16.60;10.10;;;;;;;;;;5048025;28;20048;-65
2023/07/08 00:05:12;;;;;;;17.70;10.55;;;;;;;;;;5047502;28;20029;-65
2023/07/08 00:07:39;;;;;;;14.55;10.35;;;;;;;;;;5046919;28;20055;-65
2023/07/08 00:10:22;;;;;;;18.63;12.57;;;;;;;;;;5046970;28;20042;-64
2023/07/08 00:12:50;;;;;;;17.77;10.88;;;;;;;;;;5049249;28;20041;-62
2023/07/08 00:15:17;;;;;;;21.08;11.30;;;;;;;;;;5047748;28;20159;-64
2023/07/08 00:17:44;;;;;;;27.55;19.58;;;;;;;;;;5048101;28;20086;-64
2023/07/08 00:20:19;;;;;;;36.97;28.42;;;;;;;;;;5047559;28;20517;-65
2023/07/08 00:22:52;;;;;;;25.88;15.70;;;;;;;;;;5048509;28;20040;-64
2023/07/08 00:25:21;;;;;;;29.48;19.20;;;;;;;;;;5044881;28;20057;-63
2023/07/08 00:27:48;;;;;;;15.70;10.88;;;;;;;;;;5047485;28;20593;-63
2023/07/08 00:30:19;;;;;;;16.77;11.02;;;;;;;;;;5048788;28;20069;-65
2023/07/08 00:32:45;;;;;;;15.93;9.93;;;;;;;;;;5046748;28;20067;-66
2023/07/08 00:35:12;;;;;;;14.75;10.32;;;;;;;;;;5046498;28;20043;-65
2023/07/08 00:37:39;;;;;;;15.30;10.63;;;;;;;;;;5048070;28;21732;-64
2023/07/08 00:40:16;;;;;;;16.27;9.85;;;;;;;;;;5048624;28;20041;-66
2023/07/08 00:42:44;;;;;;;16.98;10.10;;;;;;;;;;5045260;28;20565;-66
2023/07/08 00:45:19;;;;;;;13.93;9.27;;;;;;;;;;5048176;28;20414;-65
2023/07/08 00:47:45;;;;;;;15.32;9.93;;;;;;;;;;5048959;28;20221;-68
2023/07/08 00:50:12;;;;;;;17.42;11.13;;;;;;;;;;5059743;28;20044;-64
2023/07/08 00:52:41;;;;;;;16.33;10.50;;;;;;;;;;5046433;28;20036;-64
2023/07/08 00:55:09;;;;;;;16.20;10.32;;;;;;;;;;5047646;28;20060;-65
2023/07/08 00:57:41;;;;;;;14.35;9.88;;;;;;;;;;5048837;28;20044;-64
2023/07/08 01:00:09;;;;;;;15.68;9.98;;;;;;;;;;5047024;28;20053;-66
2023/07/08 01:02:43;;;;;;;18.17;9.73;;;;;;;;;;5045649;28;20048;-65
2023/07/08 01:05:15;;;;;;;12.95;9.40;;;;;;;;;;5046596;28;20033;-65
2023/07/08 01:07:41;;;;;;;;;;;;;;;;;;5029681;28;20401;-64
2023/07/08 01:10:12;;;;;;;13.18;8.23;;;;;;;;;;5032567;28;19920;-65
2023/07/08 01:12:44;;;;;;;14.38;9.15;;;;;;;;;;5032445;28;20443;-65
2023/07/08 01:15:10;;;;;;;16.85;8.35;;;;;;;;;;5034185;28;20037;-66
2023/07/08 01:17:37;;;;;;;11.80;8.63;;;;;;;;;;5030450;28;20036;-67
2023/07/08 01:20:14;;;;;;;13.30;8.55;;;;;;;;;;5045556;28;20033;-68
2023/07/08 01:22:42;;;;;;;13.25;8.32;;;;;;;;;;5027021;28;20061;-66
2023/07/08 01:25:09;;;;;;;19.08;8.90;;;;;;;;;;5030101;28;20052;-66
2023/07/08 01:27:38;;;;;;;12.18;8.30;;;;;;;;;;5029711;28;20159;-66
2023/07/08 01:30:05;;;;;;;15.95;9.23;;;;;;;;;;5030260;28;20211;-62
2023/07/08 01:32:33;;;;;;;14.25;9.02;;;;;;;;;;5030516;28;20037;-67
2023/07/08 01:35:01;;;;;;;12.93;7.50;;;;;;;;;;5046542;28;20061;-66
2023/07/08 01:37:49;;;;;;;13.02;8.10;;;;;;;;;;5033664;28;20040;-66
2023/07/08 01:40:16;;;;;;;13.02;8.68;;;;;;;;;;5031879;28;20427;-65
2023/07/08 01:42:42;;;;;;;13.20;8.40;;;;;;;;;;5043426;28;20689;-65
2023/07/08 01:45:12;;;;;;;15.70;8.10;;;;;;;;;;5032441;28;20102;-65
2023/07/08 01:47:40;;;;;;;11.85;6.95;;;;;;;;;;5033871;28;20065;-64
2023/07/08 01:50:07;;;;;;;10.70;7.10;;;;;;;;;;5037012;28;20044;-64
2023/07/08 01:52:34;;;;;;;13.98;7.43;;;;;;;;;;5030706;28;20537;-66
2023/07/08 01:55:00;;;;;;;11.65;7.57;;;;;;;;;;5033259;28;20052;-66
2023/07/08 01:57:27;;;;;;;11.95;7.47;;;;;;;;;;5029316;28;20056;-65
2023/07/08 01:59:54;;;;;;;11.82;6.70;;;;;;;;;;5024836;28;20072;-64
2023/07/08 02:02:22;;;;;;;13.48;8.25;;;;;;;;;;5043633;28;20058;-65
2023/07/08 02:04:48;;;;;;;11.32;6.90;;;;;;;;;;5024099;28;20789;-65
2023/07/08 02:07:15;;;;;;;10.85;7.10;;;;;;;;;;5046984;28;20092;-66
2023/07/08 02:09:41;;;;;;;11.43;6.53;;;;;;;;;;5032026;28;20037;-63
2023/07/08 02:12:08;;;;;;;10.05;6.43;;;;;;;;;;5034911;28;20040;-65
2023/07/08 02:14:35;;;;;;;10.20;5.40;;;;;;;;;;5031093;28;20041;-64
2023/07/08 02:17:04;;;;;;;8.88;5.40;;;;;;;;;;5032602;28;20038;-64
2023/07/08 02:19:32;;;;;;;8.13;5.10;;;;;;;;;;5031812;28;20052;-64
2023/07/08 02:21:58;;;;;;;9.05;5.07;;;;;;;;;;5030977;28;20049;-64
2023/07/08 02:24:25;;;;;;;8.65;5.10;;;;;;;;;;5033233;28;20048;-64
2023/07/08 02:26:52;;;;;;;10.40;5.25;;;;;;;;;;5032954;28;20123;-64
2023/07/08 02:29:18;;;;;;;10.63;6.22;;;;;;;;;;5033757;28;20064;-66
2023/07/08 02:31:45;;;;;;;9.38;5.40;;;;;;;;;;5043628;28;21099;-64
2023/07/08 02:34:12;;;;;;;9.95;5.18;;;;;;;;;;5033554;28;20610;-64
2023/07/08 02:36:38;;;;;;;9.00;4.93;;;;;;;;;;5031280;28;20047;-65
2023/07/08 02:39:07;;;;;;;10.18;4.93;;;;;;;;;;5030893;28;20099;-66
2023/07/08 02:41:33;;;;;;;9.80;4.72;;;;;;;;;;5042366;28;20045;-63
2023/07/08 02:44:00;;;;;;;9.00;5.30;;;;;;;;;;5028843;28;20037;-64
2023/07/08 02:46:27;;;;;;;9.52;4.90;;;;;;;;;;5044030;28;20036;-65
2023/07/08 02:48:53;;;;;;;10.25;5.97;;;;;;;;;;5044345;28;20038;-67
2023/07/08 02:51:40;;;;;;;12.27;5.57;;;;;;;;;;5042440;28;20052;-66
2023/07/08 02:54:06;;;;;;;9.88;5.57;;;;;;;;;;5044652;28;20044;-66
2023/07/08 02:56:33;;;;;;;9.35;5.82;;;;;;;;;;5043418;28;20135;-66
2023/07/08 02:59:00;;;;;;;7.95;4.93;;;;;;;;;;5026455;28;20993;-67
2023/07/08 03:01:26;;;;;;;9.95;4.85;;;;;;;;;;5042590;28;20051;-67
2023/07/08 03:03:58;;;;;;;9.50;5.60;;;;;;;;;;5045677;28;20546;-66
2023/07/08 03:06:25;;;;;;;11.23;5.35;;;;;;;;;;5044534;28;20117;-65
2023/07/08 03:08:52;;;;;;;11.23;5.82;;;;;;;;;;5044772;28;20048;-66
2023/07/08 03:11:18;;;;;;;11.57;5.97;;;;;;;;;;5044827;28;20939;-66
2023/07/08 03:13:45;;;;;;;11.15;6.47;;;;;;;;;;5044584;28;20114;-67
2023/07/08 03:16:14;;;;;;;8.90;5.55;;;;;;;;;;5044581;28;20661;-66
2023/07/08 03:18:47;;;;;;;10.07;5.35;;;;;;;;;;5024046;28;23494;-67
2023/07/08 03:21:14;;;;;;;9.65;5.35;;;;;;;;;;5044302;28;20040;-65
2023/07/08 03:23:41;;;;;;;9.50;5.53;;;;;;;;;;5042779;28;20045;-67
2023/07/08 03:26:13;;;;;;;10.63;6.20;;;;;;;;;;5028922;28;20037;-65
2023/07/08 03:28:40;;;;;;;10.88;5.68;;;;;;;;;;5026392;28;20128;-66
2023/07/08 03:31:09;;;;;;;8.95;5.00;;;;;;;;;;5043871;28;20037;-66
2023/07/08 03:33:36;;;;;;;10.60;6.38;;;;;;;;;;5027479;28;20037;-66
2023/07/08 03:36:03;;;;;;;11.25;6.25;;;;;;;;;;5028922;28;20095;-66
2023/07/08 03:38:30;;;;;;;10.43;5.88;;;;;;;;;;5025751;28;20048;-66
2023/07/08 03:40:56;;;;;;;11.55;5.68;;;;;;;;;;5024908;28;20045;-67
2023/07/08 03:43:23;;;;;;;11.05;6.40;;;;;;;;;;5026948;28;20045;-66
2023/07/08 03:45:50;;;;;;;12.95;6.72;;;;;;;;;;5026244;28;20041;-66
2023/07/08 03:48:16;;;;;;;10.93;6.70;;;;;;;;;;5027158;28;20037;-67
2023/07/08 03:50:43;;;;;;;10.77;7.05;;;;;;;;;;5025251;28;20059;-68
2023/07/08 03:53:10;;;;;;;37.58;22.00;;;;;;;;;;5021781;28;20047;-67
2023/07/08 03:55:37;;;;;;;16.40;7.90;;;;;;;;;;5035544;28;20607;-68
2023/07/08 03:58:03;;;;;;;15.40;7.18;;;;;;;;;;5028396;28;20041;-67
2023/07/08 04:00:30;;;;;;;13.45;7.95;;;;;;;;;;5029029;28;20512;-67
2023/07/08 04:02:57;;;;;;;13.90;7.68;;;;;;;;;;5023536;28;20056;-71
2023/07/08 04:05:24;;;;;;;15.18;8.90;;;;;;;;;;5041668;28;20409;-66
2023/07/08 04:07:50;;;;;;;15.68;9.70;;;;;;;;;;5026567;28;20048;-65
2023/07/08 04:10:17;;;;;;;15.82;8.70;;;;;;;;;;5027149;28;20067;-66
2023/07/08 04:12:44;;;;;;;18.80;8.98;;;;;;;;;;5027668;28;20032;-66
2023/07/08 04:15:12;;;;;;;14.52;8.48;;;;;;;;;;5027865;28;20577;-65
2023/07/08 04:17:42;;;;;;;14.32;8.63;;;;;;;;;;5026030;28;20297;-65
2023/07/08 04:20:10;;;;;;;18.48;8.27;;;;;;;;;;5039792;28;20048;-65
2023/07/08 04:22:37;;;;;;;19.58;8.02;;;;;;;;;;5027505;28;20064;-66
2023/07/08 04:25:04;;;;;;;14.90;8.65;;;;;;;;;;5042751;28;20063;-67
2023/07/08 04:27:31;;;;;;;15.23;8.88;;;;;;;;;;5025937;28;20036;-68
2023/07/08 04:29:57;;;;;;;18.60;9.00;;;;;;;;;;5025290;28;20041;-67
2023/07/08 04:32:27;;;;;;;13.95;8.98;;;;;;;;;;5022557;28;20171;-67
2023/07/08 04:34:53;;;;;;;14.85;7.88;;;;;;;;;;5029119;28;20040;-66
2023/07/08 04:37:20;;;;;;;17.25;7.85;;;;;;;;;;5029917;28;20037;-67
2023/07/08 04:39:47;;;;;;;14.63;8.48;;;;;;;;;;5040473;28;20416;-66
2023/07/08 04:42:17;;;;;;;16.25;8.45;;;;;;;;;;5030236;28;20052;-66
2023/07/08 04:44:44;;;;;;;15.48;7.97;;;;;;;;;;5032328;28;20041;-66
2023/07/08 04:47:14;;;;;;;18.40;8.50;;;;;;;;;;5032590;28;20045;-66
2023/07/08 04:49:43;;;;;;;16.20;8.20;;;;;;;;;;5031730;28;20058;-66
2023/07/08 04:52:10;;;;;;;14.30;7.60;;;;;;;;;;5033496;28;20362;-67
2023/07/08 04:54:37;;;;;;;19.60;9.35;;;;;;;;;;5032109;28;20033;-66
2023/07/08 04:57:04;;;;;;;18.33;9.40;;;;;;;;;;5033970;28;20047;-67
2023/07/08 04:59:34;;;;;;;17.30;8.45;;;;;;;;;;5031087;28;20231;-67
2023/07/08 05:02:01;;;;;;;19.08;8.27;;;;;;;;;;5031275;28;20067;-66
2023/07/08 05:04:27;;;;;;;21.52;10.35;;;;;;;;;;5030410;28;20040;-66
2023/07/08 05:06:54;;;;;;;17.00;9.80;;;;;;;;;;5031070;28;20132;-66
2023/07/08 05:09:23;;;;;;;23.70;10.32;;;;;;;;;;5030268;28;20103;-67
2023/07/08 05:11:49;;;;;;;17.83;10.88;;;;;;;;;;5031061;28;20037;-66
2023/07/08 05:14:16;;;;;;;17.40;11.20;;;;;;;;;;5032202;28;20048;-66
2023/07/08 05:16:43;;;;;;;26.25;14.07;;;;;;;;;;5031488;28;20033;-67
2023/07/08 05:19:10;;;;;;;21.65;12.48;;;;;;;;;;5031694;28;20616;-66
2023/07/08 05:21:38;;;;;;;18.30;10.52;;;;;;;;;;5043418;28;20025;-67
2023/07/08 05:24:05;;;;;;;19.02;9.82;;;;;;;;;;5033145;28;20041;-67
2023/07/08 05:26:32;;;;;;;17.65;9.27;;;;;;;;;;5032474;28;20041;-67
2023/07/08 05:28:59;;;;;;;19.67;10.40;;;;;;;;;;5032575;28;20048;-66
2023/07/08 05:31:26;;;;;;;19.42;9.73;;;;;;;;;;5032016;28;20739;-66
2023/07/08 05:33:53;;;;;;;19.25;9.65;;;;;;;;;;5045195;28;20044;-67
2023/07/08 05:36:20;;;;;;;18.08;9.30;;;;;;;;;;5034600;28;20402;-67
2023/07/08 05:38:46;;;;;;;18.80;9.60;;;;;;;;;;5032131;28;20044;-66
2023/07/08 05:41:13;;;;;;;16.30;9.32;;;;;;;;;;5029120;28;20120;-67
2023/07/08 05:43:40;;;;;;;16.38;9.45;;;;;;;;;;5029191;28;20095;-67
2023/07/08 05:46:06;;;;;;;18.58;9.38;;;;;;;;;;5045037;28;20052;-65
2023/07/08 05:48:33;;;;;;;17.65;10.43;;;;;;;;;;5033558;22;21264;-65
2023/07/08 05:51:00;;;;;;;16.65;9.27;;;;;;;;;;5031066;28;20037;-65
2023/07/08 05:53:26;;;;;;;19.33;9.40;;;;;;;;;;5029739;28;20040;-65
2023/07/08 05:55:53;;;;;;;18.42;9.90;;;;;;;;;;5030508;28;20492;-66
2023/07/08 05:58:20;;;;;;;19.10;9.73;;;;;;;;;;5030881;28;20767;-66
2023/07/08 06:00:47;;;;;;;15.98;9.68;;;;;;;;;;5030349;28;20143;-65
2023/07/08 06:03:13;;;;;;;18.15;9.23;;;;;;;;;;5028843;28;20045;-66
2023/07/08 06:05:40;;;;;;;17.88;10.00;;;;;;;;;;5030318;28;20247;-66
2023/07/08 06:08:07;;;;;;;15.27;9.15;;;;;;;;;;5029805;28;21048;-66
2023/07/08 06:10:35;;;;;;;17.95;9.88;;;;;;;;;;5029368;28;20037;-67
2023/07/08 06:13:01;;;;;;;17.05;10.00;;;;;;;;;;5028618;28;20140;-66
2023/07/08 06:15:28;;;;;;;22.00;10.00;;;;;;;;;;5029515;28;20044;-65
2023/07/08 06:17:55;;;;;;;17.65;9.45;;;;;;;;;;5029198;28;20041;-65
2023/07/08 06:20:21;;;;;;;15.95;9.85;;;;;;;;;;5031983;28;20037;-65
2023/07/08 06:22:48;;;;;;;18.85;9.73;;;;;;;;;;5030515;28;20053;-66
2023/07/08 06:25:15;;;;;;;18.65;9.93;;;;;;;;;;5005554;28;20042;-67
2023/07/08 06:27:41;;;;;;;17.25;9.80;;;;;;;;;;5028715;28;20049;-66
2023/07/08 06:30:09;;;;;;;15.93;10.38;;;;;;;;;;5030569;28;20623;-67
2023/07/08 06:32:35;;;;;;;18.02;9.73;;;;;;;;;;5026840;28;20567;-66
2023/07/08 06:35:02;;;;;;;19.65;10.20;;;;;;;;;;5028318;28;20158;-66
2023/07/08 06:37:29;;;;;;;17.00;9.60;;;;;;;;;;5027324;28;20104;-66
2023/07/08 06:39:55;;;;;;;18.45;10.48;;;;;;;;;;5028681;28;20779;-66
2023/07/08 06:42:22;;;;;;;17.98;9.85;;;;;;;;;;5028125;28;20088;-66
2023/07/08 06:44:52;;;;;;;17.55;9.82;;;;;;;;;;5029684;28;20090;-67
2023/07/08 06:47:22;;;;;;;18.77;9.82;;;;;;;;;;5027525;28;20041;-66
2023/07/08 06:49:49;;;;;;;14.70;9.65;;;;;;;;;;5026070;28;20084;-65
2023/07/08 06:52:16;;;;;;;17.25;9.52;;;;;;;;;;5029568;28;20033;-65
2023/07/08 06:54:43;;;;;;;17.73;9.68;;;;;;;;;;5027122;28;20045;-65
2023/07/08 06:57:09;;;;;;;18.00;9.73;;;;;;;;;;5027633;28;20114;-66
2023/07/08 06:59:36;;;;;;;16.58;9.77;;;;;;;;;;5027759;28;20044;-67
2023/07/08 07:02:03;;;;;;;16.10;9.00;;;;;;;;;;5028246;28;20801;-65
2023/07/08 07:04:32;;;;;;;14.55;8.90;;;;;;;;;;5026991;28;20044;-65
2023/07/08 07:06:59;;;;;;;16.88;9.70;;;;;;;;;;5029933;28;20674;-66
2023/07/08 07:09:25;;;;;;;16.98;10.52;;;;;;;;;;5030774;28;20114;-68
2023/07/08 07:11:52;;;;;;;19.67;10.90;;;;;;;;;;5030244;28;20037;-67
2023/07/08 07:14:19;;;;;;;20.42;10.85;;;;;;;;;;5031075;28;20036;-66
2023/07/08 07:16:45;;;;;;;15.82;9.68;;;;;;;;;;5021537;28;20037;-66
2023/07/08 07:19:13;;;;;;;19.63;10.40;;;;;;;;;;5029218;28;20048;-66
2023/07/08 07:21:40;;;;;;;19.48;10.02;;;;;;;;;;5029090;28;20517;-65
2023/07/08 07:24:07;;;;;;;18.25;10.23;;;;;;;;;;5031298;28;20069;-66
2023/07/08 07:26:34;;;;;;;18.83;10.75;;;;;;;;;;5023341;28;20124;-65
2023/07/08 07:29:01;;;;;;;19.75;11.00;;;;;;;;;;5030530;28;20132;-65
2023/07/08 07:31:28;;;;;;;21.95;10.80;;;;;;;;;;5029526;28;20591;-65
2023/07/08 07:33:55;;;;;;;20.60;11.00;;;;;;;;;;5044743;28;20057;-65
2023/07/08 07:36:21;;;;;;;23.85;10.70;;;;;;;;;;5030263;28;20181;-67
2023/07/08 07:38:48;;;;;;;18.70;10.63;;;;;;;;;;5031708;28;20156;-66
2023/07/08 07:41:15;;;;;;;22.95;11.23;;;;;;;;;;5031844;28;20036;-66
2023/07/08 07:43:41;;;;;;;21.85;11.65;;;;;;;;;;5031821;28;20059;-66
2023/07/08 07:46:10;;;;;;;22.38;11.65;;;;;;;;;;5025007;28;20043;-65
2023/07/08 07:48:37;;;;;;;19.88;11.80;;;;;;;;;;5028166;28;20064;-65
2023/07/08 07:51:05;;;;;;;23.73;12.15;;;;;;;;;;5028445;28;20055;-66
2023/07/08 07:53:32;;;;;;;19.50;10.93;;;;;;;;;;5018564;28;20053;-67
2023/07/08 07:55:59;;;;;;;21.70;10.80;;;;;;;;;;5003809;28;20426;-66
2023/07/08 07:58:26;;;;;;;19.92;10.52;;;;;;;;;;5028447;28;20131;-66
2023/07/08 08:00:53;;;;;;;19.70;11.15;;;;;;;;;;5027492;28;20044;-67
2023/07/08 08:03:20;;;;;;;19.85;11.30;;;;;;;;;;5026948;28;20425;-68
2023/07/08 08:05:47;;;;;;;23.38;11.80;;;;;;;;;;5027801;28;20207;-67
2023/07/08 08:08:14;;;;;;;20.67;10.82;;;;;;;;;;5009468;28;20033;-67
2023/07/08 08:10:40;;;;;;;18.52;11.00;;;;;;;;;;5021004;28;20037;-67
2023/07/08 08:13:08;;;;;;;20.77;10.63;;;;;;;;;;5028935;28;20391;-67
2023/07/08 08:15:35;;;;;;;16.63;9.82;;;;;;;;;;5004287;28;20500;-67
2023/07/08 08:18:01;;;;;;;19.23;11.18;;;;;;;;;;5028858;28;20033;-66
2023/07/08 08:20:28;;;;;;;17.65;10.15;;;;;;;;;;5027237;28;20043;-66
2023/07/08 08:22:56;;;;;;;19.00;10.80;;;;;;;;;;5030039;28;20497;-66
2023/07/08 08:25:23;;;;;;;18.27;10.50;;;;;;;;;;5030503;28;20040;-66
2023/07/08 08:27:52;;;;;;;18.92;9.90;;;;;;;;;;5030382;28;20029;-65
2023/07/08 08:30:18;;;;;;;19.17;9.90;;;;;;;;;;5030708;28;20048;-69
2023/07/08 08:32:45;;;;;;;17.98;10.48;;;;;;;;;;5028419;28;20051;-67
2023/07/08 08:35:12;;;;;;;22.38;10.77;;;;;;;;;;5028660;28;20052;-67
2023/07/08 08:37:39;;;;;;;20.58;10.75;;;;;;;;;;5025182;28;20049;-67
2023/07/08 08:40:06;;;;;;;22.25;10.82;;;;;;;;;;5020406;28;20040;-67
2023/07/08 08:42:41;;;;;;;21.85;10.63;;;;;;;;;;5023646;28;20060;-66
2023/07/08 08:45:10;;;;;;;20.90;10.27;;;;;;;;;;5025456;28;20049;-68
2023/07/08 08:47:42;;;;;;;18.33;10.13;;;;;;;;;;5040380;28;20143;-66
2023/07/08 08:50:09;;;;;;;18.33;10.07;;;;;;;;;;5026618;28;20130;-67
2023/07/08 08:52:36;;;;;;;20.33;10.32;;;;;;;;;;5023545;28;20064;-66
2023/07/08 08:55:05;;;;;;;18.02;10.23;;;;;;;;;;5028724;28;20041;-67
2023/07/08 08:57:37;;;;;;;19.88;10.05;;;;;;;;;;5043381;28;20686;-68
2023/07/08 09:00:04;;;;;;;18.48;10.52;;;;;;;;;;5026668;28;20070;-67
2023/07/08 09:02:41;;;;;;;18.88;10.48;;;;;;;;;;5021786;28;20051;-68
2023/07/08 09:05:10;;;;;;;19.10;10.90;;;;;;;;;;5034102;28;20056;-66
2023/07/08 09:07:42;;;;;;;19.48;10.13;;;;;;;;;;5026879;28;20045;-65
2023/07/08 09:10:12;;;;;;;19.27;9.88;;;;;;;;;;5027523;28;20037;-66
2023/07/08 09:12:39;;;;;;;20.13;10.20;;;;;;;;;;5026770;28;20037;-65
2023/07/08 09:15:13;;;;;;;18.05;9.80;;;;;;;;;;5027360;28;20563;-66
2023/07/08 09:17:40;;;;;;;19.05;10.07;;;;;;;;;;5023727;28;20541;-65
2023/07/08 09:20:22;;;;;;;17.98;10.25;;;;;;;;;;5024670;28;20064;-67
2023/07/08 09:22:54;;;;;;;22.55;11.15;;;;;;;;;;5023854;28;20041;-66
2023/07/08 09:25:24;;;;;;;19.70;11.40;;;;;;;;;;5026607;28;20073;-66
2023/07/08 09:27:51;;;;;;;21.45;10.15;;;;;;;;;;5027682;28;20045;-66
2023/07/08 09:30:20;;;;;;;20.27;10.05;;;;;;;;;;5029667;28;20025;-66
2023/07/08 09:32:47;;;;;;;20.38;10.27;;;;;;;;;;5021936;28;20044;-66
2023/07/08 09:35:25;;;;;;;17.95;10.35;;;;;;;;;;5029499;28;20037;-67
2023/07/08 09:37:52;;;;;;;19.95;10.27;;;;;;;;;;5009824;28;20040;-67
2023/07/08 09:40:18;;;;;;;18.17;10.13;;;;;;;;;;5029560;28;20099;-67
2023/07/08 09:42:47;;;;;;;21.90;10.27;;;;;;;;;;5021579;28;20232;-67
2023/07/08 09:45:18;;;;;;;17.60;9.75;;;;;;;;;;5029947;28;20513;-66
2023/07/08 09:47:45;;;;;;;19.23;10.05;;;;;;;;;;5021207;28;20585;-67
2023/07/08 09:50:23;;;;;;;17.60;10.00;;;;;;;;;;5027578;28;20055;-66
2023/07/08 09:52:51;;;;;;;18.05;10.30;;;;;;;;;;5029004;28;20033;-67
2023/07/08 09:55:18;;;;;;;19.30;10.07;;;;;;;;;;5029670;28;20081;-66
2023/07/08 09:57:46;;;;;;;21.55;9.68;;;;;;;;;;5029063;28;20044;-65
2023/07/08 10:00:15;;;;;;;18.48;9.35;;;;;;;;;;5029274;28;20053;-65
2023/07/08 10:02:44;;;;;;;16.45;9.18;;;;;;;;;;5021069;28;21235;-66
2023/07/08 10:05:20;;;;;;;18.08;9.57;;;;;;;;;;5029208;28;20095;-65
2023/07/08 10:07:47;;;;;;;16.65;10.00;;;;;;;;;;5030133;28;20041;-64
2023/07/08 10:10:27;;;;;;;21.45;9.65;;;;;;;;;;5031599;28;20134;-66
2023/07/08 10:13:02;;;;;;;18.75;9.90;;;;;;;;;;5031821;28;20845;-65
2023/07/08 10:15:34;;;;;;;19.83;9.10;;;;;;;;;;5031258;28;20032;-65
2023/07/08 10:18:01;;;;;;;16.13;8.45;;;;;;;;;;5028882;28;20148;-67
2023/07/08 10:20:36;;;;;;;16.20;8.70;;;;;;;;;;5030587;28;20410;-65
2023/07/08 10:23:23;;;;;;;20.45;9.30;;;;;;;;;;5028135;28;20705;-65
2023/07/08 10:26:28;;;;;;;16.88;8.98;;;;;;;;;;5027911;28;20033;-65
2023/07/08 10:29:09;;;;;;;17.52;8.73;;;;;;;;;;4981496;28;20045;-64
2023/07/08 10:31:52;;;;;;;15.25;8.20;;;;;;;;;;4983200;28;20080;-65
2023/07/08 10:34:37;;;;;;;16.77;8.43;;;;;;;;;;5017288;28;20478;-65
2023/07/08 10:37:11;;;;;;;16.88;8.77;;;;;;;;;;5029735;28;20766;-66
2023/07/08 10:39:41;;;;;;;18.17;8.23;;;;;;;;;;5028491;28;20042;-65
2023/07/08 10:42:26;;;;;;;14.20;7.28;;;;;;;;;;5032223;28;20050;-64
2023/07/08 10:45:11;;;;;;;17.38;7.82;;;;;;;;;;5026714;28;20049;-66
2023/07/08 10:47:38;;;;;;;12.75;7.40;;;;;;;;;;5027913;28;20045;-66
2023/07/08 10:50:22;;;;;;;16.35;7.93;;;;;;;;;;5028468;28;20060;-66
2023/07/08 10:52:55;;;;;;;12.85;7.68;;;;;;;;;;5021515;28;20037;-66
2023/07/08 10:55:22;;;;;;;;;;;;;;;;;;5006430;28;20079;-65
2023/07/08 10:58:14;;;;;;;13.80;7.70;;;;;;;;;;5025977;28;19968;-65
2023/07/08 11:00:41;;;;;;;16.30;7.50;;;;;;;;;;5027462;28;20123;-65
2023/07/08 11:03:26;;;;;;;12.27;7.05;;;;;;;;;;5027940;28;20127;-65
2023/07/08 11:06:12;;;;;;;16.15;8.05;;;;;;;;;;5027140;28;20041;-65
2023/07/08 11:08:53;;;;;;;13.82;7.38;;;;;;;;;;5003142;28;20094;-66
2023/07/08 11:11:26;;;;;;;13.43;7.43;;;;;;;;;;5021711;28;20041;-66
2023/07/08 11:13:56;;;;;;;17.35;7.38;;;;;;;;;;5027463;28;20498;-66
2023/07/08 11:16:28;;;;;;;14.00;7.80;;;;;;;;;;5028498;28;20039;-65
2023/07/08 11:19:03;;;;;;;16.37;7.60;;;;;;;;;;5027810;28;20056;-65
2023/07/08 11:21:38;;;;;;;11.05;6.88;;;;;;;;;;5028346;28;20075;-67
2023/07/08 11:24:05;;;;;;;13.00;7.53;;;;;;;;;;5027676;28;20041;-66
2023/07/08 11:26:42;;;;;;;14.00;8.23;;;;;;;;;;5024729;28;20406;-66
2023/07/08 11:29:17;;;;;;;15.38;8.18;;;;;;;;;;5024080;28;20437;-67
2023/07/08 11:31:43;;;;;;;14.13;7.63;;;;;;;;;;5027609;28;20072;-68
2023/07/08 11:34:12;;;;;;;14.77;7.43;;;;;;;;;;5024962;28;21907;-66
2023/07/08 11:36:39;;;;;;;14.45;7.93;;;;;;;;;;5043099;28;20032;-67
2023/07/08 11:39:25;;;;;;;16.15;8.18;;;;;;;;;;5026432;28;20170;-67
2023/07/08 11:41:55;;;;;;;15.82;9.00;;;;;;;;;;5009769;28;21338;-66
2023/07/08 11:44:21;;;;;;;15.45;8.85;;;;;;;;;;5025530;28;20521;-66
2023/07/08 11:46:55;;;;;;;13.45;8.52;;;;;;;;;;5007839;28;20041;-67
2023/07/08 11:49:23;;;;;;;17.83;8.98;;;;;;;;;;5014593;28;20950;-66
2023/07/08 11:51:51;;;;;;;14.63;8.95;;;;;;;;;;5006024;28;20136;-66
2023/07/08 11:54:31;;;;;;;16.77;9.55;;;;;;;;;;5000697;28;20037;-66
2023/07/08 11:56:57;;;;;;;16.05;9.98;;;;;;;;;;5004363;28;20040;-66
2023/07/08 11:59:30;;;;;;;17.17;9.68;;;;;;;;;;5019002;28;20052;-67
2023/07/08 12:02:05;;;;;;;20.80;9.40;;;;;;;;;;5006612;28;20667;-67
2023/07/08 12:04:35;;;;;;;15.80;9.63;;;;;;;;;;5006328;28;20049;-65
2023/07/08 12:07:04;;;;;;;20.33;10.70;;;;;;;;;;5008739;28;20037;-66
2023/07/08 12:09:36;;;;;;;16.38;9.80;;;;;;;;;;5005172;28;20120;-66
2023/07/08 12:12:06;;;;;;;17.88;10.55;;;;;;;;;;5009659;28;20133;-62
2023/07/08 12:14:33;;;;;;;19.67;10.20;;;;;;;;;;5007330;28;20540;-66
2023/07/08 12:16:59;;;;;;;18.98;10.50;;;;;;;;;;5010494;28;20102;-61
2023/07/08 12:19:28;;;;;;;18.23;10.75;;;;;;;;;;5007455;28;20048;-63
2023/07/08 12:21:55;;;;;;;16.13;10.20;;;;;;;;;;5019109;28;20120;-64
2023/07/08 12:24:26;;;;;;;16.83;10.18;;;;;;;;;;5006714;28;20042;-62
2023/07/08 12:26:52;;;;;;;19.45;11.32;;;;;;;;;;5005940;28;20073;-62
2023/07/08 12:29:19;;;;;;;18.75;10.65;;;;;;;;;;5006503;28;20514;-62
2023/07/08 12:31:46;;;;;;;17.80;10.98;;;;;;;;;;5006237;28;20064;-62
2023/07/08 12:34:16;;;;;;;18.08;11.15;;;;;;;;;;5005661;28;20048;-65
2023/07/08 12:36:44;;;;;;;18.63;10.98;;;;;;;;;;5006990;28;20047;-65
2023/07/08 12:39:14;;;;;;;23.85;11.23;;;;;;;;;;5005932;28;20168;-64
2023/07/08 12:41:42;;;;;;;18.25;10.90;;;;;;;;;;5006439;28;20050;-65
2023/07/08 12:44:18;;;;;;;18.88;11.13;;;;;;;;;;5015470;28;20483;-64
2023/07/08 12:46:45;;;;;;;18.02;10.88;;;;;;;;;;5011857;28;20073;-63
2023/07/08 12:49:11;;;;;;;17.30;9.85;;;;;;;;;;4981342;28;20124;-64
2023/07/08 12:51:42;;;;;;;23.08;11.30;;;;;;;;;;5015826;28;20045;-65
2023/07/08 12:54:10;;;;;;;19.27;10.45;;;;;;;;;;5004733;28;20041;-64
2023/07/08 12:56:37;;;;;;;19.77;10.10;;;;;;;;;;5013881;28;20697;-65
2023/07/08 12:59:05;;;;;;;20.45;10.27;;;;;;;;;;5014749;28;20043;-63
2023/07/08 13:01:32;;;;;;;15.23;8.88;;;;;;;;;;5013996;28;20484;-65
2023/07/08 13:04:02;;;;;;;17.35;9.55;;;;;;;;;;5019488;28;20049;-64
2023/07/08 13:06:49;;;;;;;17.17;9.77;;;;;;;;;;5037439;28;20456;-64
2023/07/08 13:09:15;;;;;;;14.82;9.02;;;;;;;;;;5026364;28;20239;-64
2023/07/08 13:11:42;;;;;;;20.27;9.07;;;;;;;;;;5038520;28;20041;-65
2023/07/08 13:14:09;;;;;;;15.90;8.68;;;;;;;;;;5027090;28;20224;-64
2023/07/08 13:16:36;;;;;;;21.33;9.15;;;;;;;;;;5023029;28;20032;-63
2023/07/08 13:19:03;;;;;;;17.30;9.63;;;;;;;;;;5020538;28;20064;-63
2023/07/08 13:21:30;;;;;;;15.20;8.80;;;;;;;;;;5020917;28;20048;-64
2023/07/08 13:23:57;;;;;;;18.88;9.00;;;;;;;;;;5021456;28;20055;-64
2023/07/08 13:26:26;;;;;;;14.50;8.77;;;;;;;;;;5019714;28;20464;-65
2023/07/08 13:29:01;;;;;;;16.25;8.80;;;;;;;;;;5004572;28;20055;-64
2023/07/08 13:31:33;;;;;;;27.52;10.30;;;;;;;;;;5020090;28;20044;-63
2023/07/08 13:34:06;;;;;;;15.80;8.82;;;;;;;;;;5020240;28;20591;-64
2023/07/08 13:36:34;;;;;;;20.15;9.02;;;;;;;;;;5017477;28;20095;-64
2023/07/08 13:39:03;;;;;;;17.73;9.68;;;;;;;;;;5016610;28;20142;-64
2023/07/08 13:41:31;;;;;;;17.20;9.40;;;;;;;;;;5020492;28;20115;-64
2023/07/08 13:44:04;;;;;;;16.42;9.57;;;;;;;;;;5015835;28;20063;-63
2023/07/08 13:46:30;;;;;;;;;;;;;;;;;;5017462;28;20041;-64
2023/07/08 13:49:00;;;;;;;19.52;10.30;;;;;;;;;;5023034;28;19936;-66
2023/07/08 13:51:30;;;;;;;18.13;9.50;;;;;;;;;;5022963;28;20510;-63
2023/07/08 13:54:03;;;;;;;20.45;9.90;;;;;;;;;;5010510;28;20046;-62
2023/07/08 13:56:31;;;;;;;19.90;9.82;;;;;;;;;;5009238;28;20049;-65
2023/07/08 13:59:05;;;;;;;17.08;9.88;;;;;;;;;;5009026;28;20449;-63
2023/07/08 14:01:33;;;;;;;17.20;9.88;;;;;;;;;;5010364;28;20033;-64
2023/07/08 14:04:03;;;;;;;19.50;9.70;;;;;;;;;;5011236;28;20563;-64
2023/07/08 14:06:34;;;;;;;17.33;11.07;;;;;;;;;;5010386;28;20132;-62
2023/07/08 14:09:09;;;;;;;20.27;10.40;;;;;;;;;;5009720;28;20092;-67
2023/07/08 14:11:36;;;;;;;15.57;9.60;;;;;;;;;;5011715;28;20126;-65
2023/07/08 14:14:02;;;;;;;17.02;10.43;;;;;;;;;;5017032;28;20034;-63
2023/07/08 14:16:30;;;;;;;16.00;10.02;;;;;;;;;;5006831;28;20993;-64
2023/07/08 14:19:03;;;;;;;16.20;9.95;;;;;;;;;;5017536;28;20069;-63
2023/07/08 14:21:30;;;;;;;19.27;10.32;;;;;;;;;;5016779;28;20053;-65
2023/07/08 14:23:57;;;;;;;17.38;10.43;;;;;;;;;;5002677;28;20397;-63
2023/07/08 14:26:23;;;;;;;15.15;9.25;;;;;;;;;;5007009;28;20041;-66
2023/07/08 14:28:50;;;;;;;16.23;9.85;;;;;;;;;;5005915;28;20037;-67
2023/07/08 14:31:20;;;;;;;17.30;10.32;;;;;;;;;;5017463;28;20124;-64
2023/07/08 14:33:46;;;;;;;17.60;10.45;;;;;;;;;;5004984;28;20410;-65
2023/07/08 14:36:14;;;;;;;16.90;10.13;;;;;;;;;;5011470;28;20801;-65